sensor_id;sensor_type;location;lat;lon;timestamp;P1;durP1;ratioP1;P2;durP2;ratioP2
26742;SDS011;14341;51.256;22.478;2022-09-27T00:00:02;100.20;;;32.92;;
26742;SDS011;14341;51.256;22.478;2022-09-27T00:06:18;85.63;;;31.40;;
26742;SDS011;14341;51.256;22.478;2022-09-27T00:09:25;94.68;;;32.45;;
26742;SDS011;14341;51.256;22.478;2022-09-27T00:12:28;81.72;;;32.78;;
26742;SDS011;14341;51.256;22.478;2022-09-27T00:15:32;73.07;;;30.55;;
26742;SDS011;14341;51.256;22.478;2022-09-27T00:18:36;72.97;;;30.85;;
26742;SDS011;14341;51.256;22.478;2022-09-27T00:21:40;70.55;;;31.00;;
26742;SDS011;14341;51.256;22.478;2022-09-27T00:24:44;83.20;;;32.80;;
26742;SDS011;14341;51.256;22.478;2022-09-27T00:27:48;63.58;;;29.95;;
26742;SDS011;14341;51.256;22.478;2022-09-27T00:30:51;68.45;;;31.70;;
26742;SDS011;14341;51.256;22.478;2022-09-27T00:33:58;63.15;;;29.50;;
26742;SDS011;14341;51.256;22.478;2022-09-27T00:37:02;80.40;;;32.10;;
26742;SDS011;14341;51.256;22.478;2022-09-27T00:40:06;72.18;;;32.67;;
26742;SDS011;14341;51.256;22.478;2022-09-27T00:43:13;94.97;;;35.33;;
26742;SDS011;14341;51.256;22.478;2022-09-27T00:46:21;120.30;;;36.42;;
26742;SDS011;14341;51.256;22.478;2022-09-27T00:49:30;99.97;;;35.17;;
26742;SDS011;14341;51.256;22.478;2022-09-27T00:52:40;156.65;;;36.53;;
26742;SDS011;14341;51.256;22.478;2022-09-27T00:55:48;131.82;;;32.03;;
26742;SDS011;14341;51.256;22.478;2022-09-27T00:58:55;100.68;;;33.03;;
26742;SDS011;14341;51.256;22.478;2022-09-27T01:02:01;201.80;;;33.72;;
26742;SDS011;14341;51.256;22.478;2022-09-27T01:05:09;149.38;;;33.95;;
26742;SDS011;14341;51.256;22.478;2022-09-27T01:08:15;122.40;;;33.53;;
26742;SDS011;14341;51.256;22.478;2022-09-27T01:11:21;130.15;;;35.03;;
26742;SDS011;14341;51.256;22.478;2022-09-27T01:14:40;85.53;;;32.65;;
26742;SDS011;14341;51.256;22.478;2022-09-27T01:18:01;106.65;;;33.75;;
26742;SDS011;14341;51.256;22.478;2022-09-27T01:21:23;178.32;;;34.58;;
26742;SDS011;14341;51.256;22.478;2022-09-27T01:24:50;157.45;;;33.28;;
26742;SDS011;14341;51.256;22.478;2022-09-27T01:28:10;151.55;;;33.38;;
26742;SDS011;14341;51.256;22.478;2022-09-27T01:31:23;224.80;;;36.20;;
26742;SDS011;14341;51.256;22.478;2022-09-27T01:34:34;237.20;;;34.03;;
26742;SDS011;14341;51.256;22.478;2022-09-27T01:37:47;139.52;;;33.15;;
26742;SDS011;14341;51.256;22.478;2022-09-27T01:40:56;202.90;;;33.13;;
26742;SDS011;14341;51.256;22.478;2022-09-27T01:44:44;94.93;;;31.48;;
26742;SDS011;14341;51.256;22.478;2022-09-27T02:01:11;108.22;;;26.50;;
26742;SDS011;14341;51.256;22.478;2022-09-27T02:04:18;70.45;;;25.50;;
26742;SDS011;14341;51.256;22.478;2022-09-27T02:07:28;157.40;;;29.98;;
26742;SDS011;14341;51.256;22.478;2022-09-27T02:10:36;90.47;;;27.80;;
26742;SDS011;14341;51.256;22.478;2022-09-27T02:13:52;69.10;;;26.45;;
26742;SDS011;14341;51.256;22.478;2022-09-27T02:17:18;63.22;;;24.48;;
26742;SDS011;14341;51.256;22.478;2022-09-27T02:20:28;94.32;;;25.50;;
26742;SDS011;14341;51.256;22.478;2022-09-27T02:23:38;56.55;;;23.40;;
26742;SDS011;14341;51.256;22.478;2022-09-27T02:26:47;215.43;;;28.20;;
26742;SDS011;14341;51.256;22.478;2022-09-27T02:30:01;90.53;;;25.02;;
26742;SDS011;14341;51.256;22.478;2022-09-27T02:33:09;157.00;;;27.58;;
26742;SDS011;14341;51.256;22.478;2022-09-27T02:36:13;75.57;;;24.90;;
26742;SDS011;14341;51.256;22.478;2022-09-27T02:39:18;60.20;;;24.63;;
26742;SDS011;14341;51.256;22.478;2022-09-27T02:42:30;86.38;;;23.60;;
26742;SDS011;14341;51.256;22.478;2022-09-27T02:45:38;70.65;;;24.02;;
26742;SDS011;14341;51.256;22.478;2022-09-27T02:48:51;75.47;;;24.58;;
26742;SDS011;14341;51.256;22.478;2022-09-27T02:52:08;54.17;;;23.60;;
26742;SDS011;14341;51.256;22.478;2022-09-27T02:55:23;54.58;;;23.20;;
26742;SDS011;14341;51.256;22.478;2022-09-27T02:58:53;66.97;;;24.58;;
26742;SDS011;14341;51.256;22.478;2022-09-27T03:02:27;81.55;;;23.15;;
26742;SDS011;14341;51.256;22.478;2022-09-27T03:05:57;56.20;;;23.45;;
26742;SDS011;14341;51.256;22.478;2022-09-27T03:09:12;92.72;;;24.77;;
26742;SDS011;14341;51.256;22.478;2022-09-27T03:12:19;101.50;;;24.17;;
26742;SDS011;14341;51.256;22.478;2022-09-27T03:15:26;52.70;;;23.75;;
26742;SDS011;14341;51.256;22.478;2022-09-27T03:18:35;100.15;;;24.88;;
26742;SDS011;14341;51.256;22.478;2022-09-27T03:22:07;94.68;;;23.80;;
26742;SDS011;14341;51.256;22.478;2022-09-27T03:25:11;74.30;;;23.73;;
26742;SDS011;14341;51.256;22.478;2022-09-27T03:28:14;62.00;;;23.23;;
26742;SDS011;14341;51.256;22.478;2022-09-27T03:31:19;119.78;;;23.73;;
26742;SDS011;14341;51.256;22.478;2022-09-27T03:34:47;106.15;;;22.02;;
26742;SDS011;14341;51.256;22.478;2022-09-27T03:37:51;83.45;;;20.45;;
26742;SDS011;14341;51.256;22.478;2022-09-27T03:40:54;129.83;;;20.77;;
26742;SDS011;14341;51.256;22.478;2022-09-27T03:43:57;91.55;;;19.90;;
26742;SDS011;14341;51.256;22.478;2022-09-27T03:47:05;112.80;;;21.45;;
26742;SDS011;14341;51.256;22.478;2022-09-27T03:50:11;110.20;;;22.10;;
26742;SDS011;14341;51.256;22.478;2022-09-27T03:53:14;203.05;;;25.15;;
26742;SDS011;14341;51.256;22.478;2022-09-27T03:56:18;96.00;;;20.98;;
26742;SDS011;14341;51.256;22.478;2022-09-27T03:59:22;130.98;;;21.80;;
26742;SDS011;14341;51.256;22.478;2022-09-27T04:02:44;59.38;;;20.88;;
26742;SDS011;14341;51.256;22.478;2022-09-27T04:05:59;91.38;;;21.42;;
26742;SDS011;14341;51.256;22.478;2022-09-27T04:09:10;158.20;;;23.90;;
26742;SDS011;14341;51.256;22.478;2022-09-27T04:12:39;78.73;;;20.90;;
26742;SDS011;14341;51.256;22.478;2022-09-27T04:15:43;164.23;;;23.63;;
26742;SDS011;14341;51.256;22.478;2022-09-27T04:19:11;71.70;;;22.60;;
26742;SDS011;14341;51.256;22.478;2022-09-27T04:22:21;82.18;;;23.13;;
26742;SDS011;14341;51.256;22.478;2022-09-27T04:25:25;115.32;;;25.13;;
26742;SDS011;14341;51.256;22.478;2022-09-27T04:28:31;79.93;;;24.67;;
26742;SDS011;14341;51.256;22.478;2022-09-27T04:31:35;110.55;;;26.85;;
26742;SDS011;14341;51.256;22.478;2022-09-27T04:35:05;117.53;;;27.55;;
26742;SDS011;14341;51.256;22.478;2022-09-27T04:38:28;113.07;;;27.55;;
26742;SDS011;14341;51.256;22.478;2022-09-27T04:41:32;88.93;;;26.92;;
26742;SDS011;14341;51.256;22.478;2022-09-27T04:44:36;279.52;;;32.55;;
26742;SDS011;14341;51.256;22.478;2022-09-27T04:47:41;160.52;;;29.77;;
26742;SDS011;14341;51.256;22.478;2022-09-27T04:50:45;91.45;;;29.35;;
26742;SDS011;14341;51.256;22.478;2022-09-27T04:53:50;414.05;;;265.40;;
26742;SDS011;14341;51.256;22.478;2022-09-27T04:56:54;152.02;;;39.47;;
26742;SDS011;14341;51.256;22.478;2022-09-27T04:59:58;104.25;;;50.85;;
26742;SDS011;14341;51.256;22.478;2022-09-27T05:03:02;84.63;;;34.53;;
26742;SDS011;14341;51.256;22.478;2022-09-27T05:06:22;82.22;;;33.80;;
26742;SDS011;14341;51.256;22.478;2022-09-27T05:09:30;70.30;;;31.20;;
26742;SDS011;14341;51.256;22.478;2022-09-27T05:12:34;64.65;;;30.65;;
26742;SDS011;14341;51.256;22.478;2022-09-27T05:15:37;65.40;;;31.08;;
26742;SDS011;14341;51.256;22.478;2022-09-27T05:19:13;68.32;;;31.30;;
26742;SDS011;14341;51.256;22.478;2022-09-27T05:22:38;65.65;;;31.20;;
26742;SDS011;14341;51.256;22.478;2022-09-27T05:25:44;61.60;;;30.17;;
26742;SDS011;14341;51.256;22.478;2022-09-27T05:28:47;65.65;;;30.15;;
26742;SDS011;14341;51.256;22.478;2022-09-27T05:31:51;308.80;;;209.77;;
26742;SDS011;14341;51.256;22.478;2022-09-27T05:34:54;61.03;;;33.05;;
26742;SDS011;14341;51.256;22.478;2022-09-27T05:37:58;50.67;;;28.83;;
26742;SDS011;14341;51.256;22.478;2022-09-27T05:41:06;52.28;;;30.23;;
26742;SDS011;14341;51.256;22.478;2022-09-27T05:44:10;44.92;;;27.48;;
26742;SDS011;14341;51.256;22.478;2022-09-27T05:47:22;45.53;;;27.35;;
26742;SDS011;14341;51.256;22.478;2022-09-27T05:50:25;49.50;;;28.85;;
26742;SDS011;14341;51.256;22.478;2022-09-27T05:53:29;52.75;;;29.40;;
26742;SDS011;14341;51.256;22.478;2022-09-27T05:56:37;56.35;;;31.30;;
26742;SDS011;14341;51.256;22.478;2022-09-27T05:59:56;57.38;;;31.58;;
26742;SDS011;14341;51.256;22.478;2022-09-27T06:03:13;62.58;;;32.63;;
26742;SDS011;14341;51.256;22.478;2022-09-27T06:06:35;57.35;;;32.25;;
26742;SDS011;14341;51.256;22.478;2022-09-27T06:09:39;58.35;;;32.25;;
26742;SDS011;14341;51.256;22.478;2022-09-27T06:12:47;58.53;;;31.95;;
26742;SDS011;14341;51.256;22.478;2022-09-27T06:16:02;54.08;;;31.10;;
26742;SDS011;14341;51.256;22.478;2022-09-27T06:19:09;107.95;;;70.13;;
26742;SDS011;14341;51.256;22.478;2022-09-27T06:22:12;62.95;;;35.08;;
26742;SDS011;14341;51.256;22.478;2022-09-27T06:25:30;56.53;;;33.47;;
26742;SDS011;14341;51.256;22.478;2022-09-27T06:28:46;57.60;;;34.08;;
26742;SDS011;14341;51.256;22.478;2022-09-27T06:31:54;54.40;;;32.40;;
26742;SDS011;14341;51.256;22.478;2022-09-27T06:35:17;46.67;;;29.70;;
26742;SDS011;14341;51.256;22.478;2022-09-27T06:38:20;42.90;;;28.15;;
26742;SDS011;14341;51.256;22.478;2022-09-27T06:41:39;41.08;;;27.20;;
26742;SDS011;14341;51.256;22.478;2022-09-27T06:44:51;41.88;;;27.20;;
26742;SDS011;14341;51.256;22.478;2022-09-27T06:48:13;39.90;;;27.58;;
26742;SDS011;14341;51.256;22.478;2022-09-27T06:51:25;40.50;;;26.17;;
26742;SDS011;14341;51.256;22.478;2022-09-27T06:54:29;40.85;;;24.55;;
26742;SDS011;14341;51.256;22.478;2022-09-27T06:57:33;35.72;;;25.38;;
26742;SDS011;14341;51.256;22.478;2022-09-27T07:00:56;35.00;;;25.42;;
26742;SDS011;14341;51.256;22.478;2022-09-27T07:04:20;34.83;;;24.20;;
26742;SDS011;14341;51.256;22.478;2022-09-27T07:07:30;36.58;;;23.65;;
26742;SDS011;14341;51.256;22.478;2022-09-27T07:10:35;57.60;;;42.30;;
26742;SDS011;14341;51.256;22.478;2022-09-27T07:13:39;27.88;;;21.98;;
26742;SDS011;14341;51.256;22.478;2022-09-27T07:16:45;28.58;;;21.33;;
26742;SDS011;14341;51.256;22.478;2022-09-27T07:19:50;28.60;;;20.40;;
26742;SDS011;14341;51.256;22.478;2022-09-27T07:22:54;26.33;;;18.52;;
26742;SDS011;14341;51.256;22.478;2022-09-27T07:25:59;23.60;;;18.73;;
26742;SDS011;14341;51.256;22.478;2022-09-27T07:29:06;27.20;;;18.05;;
26742;SDS011;14341;51.256;22.478;2022-09-27T07:32:11;125.10;;;98.45;;
26742;SDS011;14341;51.256;22.478;2022-09-27T07:35:15;21.05;;;17.40;;
26742;SDS011;14341;51.256;22.478;2022-09-27T07:38:18;20.30;;;16.42;;
26742;SDS011;14341;51.256;22.478;2022-09-27T07:41:22;19.17;;;15.77;;
26742;SDS011;14341;51.256;22.478;2022-09-27T07:44:27;20.58;;;14.93;;
26742;SDS011;14341;51.256;22.478;2022-09-27T07:47:50;19.63;;;15.32;;
26742;SDS011;14341;51.256;22.478;2022-09-27T07:51:01;19.08;;;15.23;;
26742;SDS011;14341;51.256;22.478;2022-09-27T07:54:15;20.05;;;15.85;;
26742;SDS011;14341;51.256;22.478;2022-09-27T07:57:20;19.63;;;17.20;;
26742;SDS011;14341;51.256;22.478;2022-09-27T08:00:27;21.48;;;18.70;;
26742;SDS011;14341;51.256;22.478;2022-09-27T08:03:32;29.77;;;22.27;;
26742;SDS011;14341;51.256;22.478;2022-09-27T08:06:35;33.00;;;25.55;;
26742;SDS011;14341;51.256;22.478;2022-09-27T08:09:38;31.95;;;26.75;;
26742;SDS011;14341;51.256;22.478;2022-09-27T08:12:42;25.55;;;21.95;;
26742;SDS011;14341;51.256;22.478;2022-09-27T08:15:46;18.38;;;15.50;;
26742;SDS011;14341;51.256;22.478;2022-09-27T08:18:55;11.38;;;9.93;;
26742;SDS011;14341;51.256;22.478;2022-09-27T08:22:24;12.55;;;10.73;;
26742;SDS011;14341;51.256;22.478;2022-09-27T08:25:31;13.55;;;9.80;;
26742;SDS011;14341;51.256;22.478;2022-09-27T08:28:45;9.82;;;8.82;;
26742;SDS011;14341;51.256;22.478;2022-09-27T08:31:56;10.32;;;9.23;;
26742;SDS011;14341;51.256;22.478;2022-09-27T08:35:01;13.65;;;9.23;;
26742;SDS011;14341;51.256;22.478;2022-09-27T08:38:08;10.63;;;9.35;;
26742;SDS011;14341;51.256;22.478;2022-09-27T08:41:13;12.55;;;9.77;;
26742;SDS011;14341;51.256;22.478;2022-09-27T08:44:30;13.90;;;11.63;;
26742;SDS011;14341;51.256;22.478;2022-09-27T08:50:58;12.02;;;10.73;;
26742;SDS011;14341;51.256;22.478;2022-09-27T08:54:06;66.68;;;51.90;;
26742;SDS011;14341;51.256;22.478;2022-09-27T08:57:13;10.82;;;9.73;;
26742;SDS011;14341;51.256;22.478;2022-09-27T09:00:19;10.15;;;8.73;;
26742;SDS011;14341;51.256;22.478;2022-09-27T09:03:24;9.88;;;8.77;;
26742;SDS011;14341;51.256;22.478;2022-09-27T09:06:34;8.55;;;7.65;;
26742;SDS011;14341;51.256;22.478;2022-09-27T09:09:46;11.50;;;9.05;;
26742;SDS011;14341;51.256;22.478;2022-09-27T09:12:56;10.00;;;8.93;;
26742;SDS011;14341;51.256;22.478;2022-09-27T09:16:14;8.23;;;7.38;;
26742;SDS011;14341;51.256;22.478;2022-09-27T09:19:40;8.93;;;8.02;;
26742;SDS011;14341;51.256;22.478;2022-09-27T09:23:12;11.50;;;7.55;;
26742;SDS011;14341;51.256;22.478;2022-09-27T09:26:29;7.43;;;6.57;;
26742;SDS011;14341;51.256;22.478;2022-09-27T09:29:47;7.70;;;6.90;;
26742;SDS011;14341;51.256;22.478;2022-09-27T09:33:14;8.73;;;7.45;;
26742;SDS011;14341;51.256;22.478;2022-09-27T09:36:25;8.43;;;7.28;;
26742;SDS011;14341;51.256;22.478;2022-09-27T09:39:35;9.15;;;6.80;;
26742;SDS011;14341;51.256;22.478;2022-09-27T09:42:45;8.10;;;7.00;;
26742;SDS011;14341;51.256;22.478;2022-09-27T09:45:53;7.53;;;6.82;;
26742;SDS011;14341;51.256;22.478;2022-09-27T09:49:00;8.15;;;6.18;;
26742;SDS011;14341;51.256;22.478;2022-09-27T09:52:09;6.70;;;6.00;;
26742;SDS011;14341;51.256;22.478;2022-09-27T09:55:18;7.97;;;6.22;;
26742;SDS011;14341;51.256;22.478;2022-09-27T09:58:26;7.82;;;7.03;;
26742;SDS011;14341;51.256;22.478;2022-09-27T10:01:39;9.27;;;7.25;;
26742;SDS011;14341;51.256;22.478;2022-09-27T10:04:44;27.15;;;23.23;;
26742;SDS011;14341;51.256;22.478;2022-09-27T10:07:48;10.93;;;8.95;;
26742;SDS011;14341;51.256;22.478;2022-09-27T10:10:55;8.50;;;6.65;;
26742;SDS011;14341;51.256;22.478;2022-09-27T10:13:58;9.18;;;7.75;;
26742;SDS011;14341;51.256;22.478;2022-09-27T10:17:03;8.75;;;7.90;;
26742;SDS011;14341;51.256;22.478;2022-09-27T10:20:15;11.57;;;9.18;;
26742;SDS011;14341;51.256;22.478;2022-09-27T10:23:26;11.30;;;8.63;;
26742;SDS011;14341;51.256;22.478;2022-09-27T10:26:38;12.73;;;9.07;;
26742;SDS011;14341;51.256;22.478;2022-09-27T10:29:44;11.88;;;8.90;;
26742;SDS011;14341;51.256;22.478;2022-09-27T10:32:54;13.65;;;9.75;;
26742;SDS011;14341;51.256;22.478;2022-09-27T10:36:21;15.20;;;10.18;;
26742;SDS011;14341;51.256;22.478;2022-09-27T10:39:26;12.30;;;9.85;;
26742;SDS011;14341;51.256;22.478;2022-09-27T10:42:33;9.57;;;7.80;;
26742;SDS011;14341;51.256;22.478;2022-09-27T10:45:42;8.27;;;7.28;;
26742;SDS011;14341;51.256;22.478;2022-09-27T10:52:15;8.75;;;7.85;;
26742;SDS011;14341;51.256;22.478;2022-09-27T10:55:21;10.57;;;8.40;;
26742;SDS011;14341;51.256;22.478;2022-09-27T10:58:31;11.05;;;8.85;;
26742;SDS011;14341;51.256;22.478;2022-09-27T11:01:38;11.98;;;9.07;;
26742;SDS011;14341;51.256;22.478;2022-09-27T11:05:06;12.43;;;9.80;;
26742;SDS011;14341;51.256;22.478;2022-09-27T11:08:27;11.90;;;8.90;;
26742;SDS011;14341;51.256;22.478;2022-09-27T11:11:41;10.82;;;8.95;;
26742;SDS011;14341;51.256;22.478;2022-09-27T11:14:52;11.88;;;9.48;;
26742;SDS011;14341;51.256;22.478;2022-09-27T11:17:59;12.07;;;9.88;;
26742;SDS011;14341;51.256;22.478;2022-09-27T11:21:15;12.52;;;10.38;;
26742;SDS011;14341;51.256;22.478;2022-09-27T11:24:36;11.07;;;8.90;;
26742;SDS011;14341;51.256;22.478;2022-09-27T11:27:58;11.65;;;9.32;;
26742;SDS011;14341;51.256;22.478;2022-09-27T11:31:13;12.05;;;8.90;;
26742;SDS011;14341;51.256;22.478;2022-09-27T11:34:46;10.27;;;8.73;;
26742;SDS011;14341;51.256;22.478;2022-09-27T11:38:07;8.70;;;6.57;;
26742;SDS011;14341;51.256;22.478;2022-09-27T11:41:43;8.40;;;7.50;;
26742;SDS011;14341;51.256;22.478;2022-09-27T11:45:16;10.50;;;8.13;;
26742;SDS011;14341;51.256;22.478;2022-09-27T11:48:52;7.10;;;5.40;;
26742;SDS011;14341;51.256;22.478;2022-09-27T11:55:38;9.60;;;8.05;;
26742;SDS011;14341;51.256;22.478;2022-09-27T11:58:53;8.77;;;7.50;;
26742;SDS011;14341;51.256;22.478;2022-09-27T12:02:08;9.95;;;8.05;;
26742;SDS011;14341;51.256;22.478;2022-09-27T12:05:29;8.75;;;7.85;;
26742;SDS011;14341;51.256;22.478;2022-09-27T12:12:04;10.85;;;8.50;;
26742;SDS011;14341;51.256;22.478;2022-09-27T12:15:14;11.82;;;8.43;;
26742;SDS011;14341;51.256;22.478;2022-09-27T12:18:21;9.68;;;8.68;;
26742;SDS011;14341;51.256;22.478;2022-09-27T12:21:31;10.75;;;9.50;;
26742;SDS011;14341;51.256;22.478;2022-09-27T12:24:35;11.60;;;9.30;;
26742;SDS011;14341;51.256;22.478;2022-09-27T12:27:57;10.25;;;8.75;;
26742;SDS011;14341;51.256;22.478;2022-09-27T12:31:08;9.98;;;8.45;;
26742;SDS011;14341;51.256;22.478;2022-09-27T12:34:31;10.85;;;8.80;;
26742;SDS011;14341;51.256;22.478;2022-09-27T12:37:43;9.30;;;8.32;;
26742;SDS011;14341;51.256;22.478;2022-09-27T12:40:51;10.27;;;7.60;;
26742;SDS011;14341;51.256;22.478;2022-09-27T12:44:09;9.35;;;7.93;;
26742;SDS011;14341;51.256;22.478;2022-09-27T12:47:35;9.93;;;7.70;;
26742;SDS011;14341;51.256;22.478;2022-09-27T12:50:54;9.18;;;7.80;;
26742;SDS011;14341;51.256;22.478;2022-09-27T12:54:13;10.57;;;7.70;;
26742;SDS011;14341;51.256;22.478;2022-09-27T12:57:42;7.20;;;6.20;;
26742;SDS011;14341;51.256;22.478;2022-09-27T13:00:57;8.55;;;6.50;;
26742;SDS011;14341;51.256;22.478;2022-09-27T13:04:11;9.13;;;6.60;;
26742;SDS011;14341;51.256;22.478;2022-09-27T13:07:31;10.27;;;7.20;;
26742;SDS011;14341;51.256;22.478;2022-09-27T13:10:47;10.05;;;7.22;;
26742;SDS011;14341;51.256;22.478;2022-09-27T13:14:01;9.23;;;6.72;;
26742;SDS011;14341;51.256;22.478;2022-09-27T13:21:09;7.93;;;6.32;;
26742;SDS011;14341;51.256;22.478;2022-09-27T13:28:32;8.07;;;6.57;;
26742;SDS011;14341;51.256;22.478;2022-09-27T13:35:46;9.18;;;6.68;;
26742;SDS011;14341;51.256;22.478;2022-09-27T13:39:16;9.32;;;6.50;;
26742;SDS011;14341;51.256;22.478;2022-09-27T13:42:43;7.35;;;5.90;;
26742;SDS011;14341;51.256;22.478;2022-09-27T13:45:58;7.90;;;6.43;;
26742;SDS011;14341;51.256;22.478;2022-09-27T13:49:12;10.60;;;7.15;;
26742;SDS011;14341;51.256;22.478;2022-09-27T13:52:55;9.85;;;7.35;;
26742;SDS011;14341;51.256;22.478;2022-09-27T13:56:04;11.05;;;8.40;;
26742;SDS011;14341;51.256;22.478;2022-09-27T13:59:33;9.18;;;7.50;;
26742;SDS011;14341;51.256;22.478;2022-09-27T14:03:01;11.05;;;7.88;;
26742;SDS011;14341;51.256;22.478;2022-09-27T14:06:12;10.10;;;7.00;;
26742;SDS011;14341;51.256;22.478;2022-09-27T14:09:19;9.13;;;6.72;;
26742;SDS011;14341;51.256;22.478;2022-09-27T14:12:37;7.78;;;6.50;;
26742;SDS011;14341;51.256;22.478;2022-09-27T14:15:46;8.98;;;6.45;;
26742;SDS011;14341;51.256;22.478;2022-09-27T14:18:53;9.05;;;6.60;;
26742;SDS011;14341;51.256;22.478;2022-09-27T14:22:12;8.23;;;6.57;;
26742;SDS011;14341;51.256;22.478;2022-09-27T14:25:45;8.82;;;6.97;;
26742;SDS011;14341;51.256;22.478;2022-09-27T14:28:52;9.27;;;7.30;;
26742;SDS011;14341;51.256;22.478;2022-09-27T14:32:03;11.60;;;7.45;;
26742;SDS011;14341;51.256;22.478;2022-09-27T14:35:25;9.85;;;7.95;;
26742;SDS011;14341;51.256;22.478;2022-09-27T14:38:48;9.93;;;8.15;;
26742;SDS011;14341;51.256;22.478;2022-09-27T14:42:00;8.43;;;6.78;;
26742;SDS011;14341;51.256;22.478;2022-09-27T14:45:13;8.85;;;6.53;;
26742;SDS011;14341;51.256;22.478;2022-09-27T14:48:22;9.88;;;6.55;;
26742;SDS011;14341;51.256;22.478;2022-09-27T14:51:30;12.18;;;6.38;;
26742;SDS011;14341;51.256;22.478;2022-09-27T14:54:36;7.63;;;6.20;;
26742;SDS011;14341;51.256;22.478;2022-09-27T14:57:43;7.85;;;6.70;;
26742;SDS011;14341;51.256;22.478;2022-09-27T15:00:48;12.02;;;6.95;;
26742;SDS011;14341;51.256;22.478;2022-09-27T15:03:52;11.13;;;7.10;;
26742;SDS011;14341;51.256;22.478;2022-09-27T15:06:57;10.68;;;6.78;;
26742;SDS011;14341;51.256;22.478;2022-09-27T15:10:04;8.98;;;7.45;;
26742;SDS011;14341;51.256;22.478;2022-09-27T15:13:10;9.48;;;7.60;;
26742;SDS011;14341;51.256;22.478;2022-09-27T15:16:18;13.02;;;8.13;;
26742;SDS011;14341;51.256;22.478;2022-09-27T15:19:25;11.43;;;7.50;;
26742;SDS011;14341;51.256;22.478;2022-09-27T15:22:33;10.63;;;7.95;;
26742;SDS011;14341;51.256;22.478;2022-09-27T15:25:40;9.65;;;7.53;;
26742;SDS011;14341;51.256;22.478;2022-09-27T15:28:57;13.90;;;7.80;;
26742;SDS011;14341;51.256;22.478;2022-09-27T15:32:02;10.50;;;8.00;;
26742;SDS011;14341;51.256;22.478;2022-09-27T15:35:07;10.48;;;8.32;;
26742;SDS011;14341;51.256;22.478;2022-09-27T15:38:19;11.30;;;8.48;;
26742;SDS011;14341;51.256;22.478;2022-09-27T15:41:27;10.15;;;7.93;;
26742;SDS011;14341;51.256;22.478;2022-09-27T15:45:07;12.93;;;8.98;;
26742;SDS011;14341;51.256;22.478;2022-09-27T15:48:32;13.27;;;9.32;;
26742;SDS011;14341;51.256;22.478;2022-09-27T15:51:41;15.60;;;10.43;;
26742;SDS011;14341;51.256;22.478;2022-09-27T15:54:46;13.63;;;10.02;;
26742;SDS011;14341;51.256;22.478;2022-09-27T15:57:53;17.20;;;11.82;;
26742;SDS011;14341;51.256;22.478;2022-09-27T16:01:00;17.48;;;12.98;;
26742;SDS011;14341;51.256;22.478;2022-09-27T16:04:07;20.70;;;13.35;;
26742;SDS011;14341;51.256;22.478;2022-09-27T16:07:10;18.38;;;13.48;;
26742;SDS011;14341;51.256;22.478;2022-09-27T16:10:18;22.48;;;15.05;;
26742;SDS011;14341;51.256;22.478;2022-09-27T16:13:24;23.58;;;16.35;;
26742;SDS011;14341;51.256;22.478;2022-09-27T16:16:33;21.58;;;17.05;;
26742;SDS011;14341;51.256;22.478;2022-09-27T16:19:37;22.33;;;17.10;;
26742;SDS011;14341;51.256;22.478;2022-09-27T16:22:41;26.15;;;19.40;;
26742;SDS011;14341;51.256;22.478;2022-09-27T16:25:46;39.65;;;24.20;;
26742;SDS011;14341;51.256;22.478;2022-09-27T16:28:49;39.25;;;25.63;;
26742;SDS011;14341;51.256;22.478;2022-09-27T16:31:54;40.90;;;26.40;;
26742;SDS011;14341;51.256;22.478;2022-09-27T16:34:58;38.05;;;23.85;;
26742;SDS011;14341;51.256;22.478;2022-09-27T16:38:07;33.85;;;22.92;;
26742;SDS011;14341;51.256;22.478;2022-09-27T16:41:15;28.83;;;20.17;;
26742;SDS011;14341;51.256;22.478;2022-09-27T16:44:22;27.88;;;20.85;;
26742;SDS011;14341;51.256;22.478;2022-09-27T16:47:29;38.40;;;26.02;;
26742;SDS011;14341;51.256;22.478;2022-09-27T16:50:42;35.88;;;25.50;;
26742;SDS011;14341;51.256;22.478;2022-09-27T16:54:04;31.85;;;23.58;;
26742;SDS011;14341;51.256;22.478;2022-09-27T16:57:13;30.48;;;21.67;;
26742;SDS011;14341;51.256;22.478;2022-09-27T17:00:17;33.50;;;22.92;;
26742;SDS011;14341;51.256;22.478;2022-09-27T17:03:22;33.13;;;23.83;;
26742;SDS011;14341;51.256;22.478;2022-09-27T17:06:26;41.03;;;28.80;;
26742;SDS011;14341;51.256;22.478;2022-09-27T17:09:32;48.35;;;36.92;;
26742;SDS011;14341;51.256;22.478;2022-09-27T17:12:40;30.95;;;23.60;;
26742;SDS011;14341;51.256;22.478;2022-09-27T17:15:44;31.13;;;23.35;;
26742;SDS011;14341;51.256;22.478;2022-09-27T17:18:48;29.15;;;22.15;;
26742;SDS011;14341;51.256;22.478;2022-09-27T17:21:54;35.45;;;29.50;;
26742;SDS011;14341;51.256;22.478;2022-09-27T17:24:58;27.50;;;21.65;;
26742;SDS011;14341;51.256;22.478;2022-09-27T17:28:04;24.65;;;19.80;;
26742;SDS011;14341;51.256;22.478;2022-09-27T17:31:09;31.15;;;19.67;;
26742;SDS011;14341;51.256;22.478;2022-09-27T17:34:18;28.15;;;20.20;;
26742;SDS011;14341;51.256;22.478;2022-09-27T17:37:23;21.65;;;17.30;;
26742;SDS011;14341;51.256;22.478;2022-09-27T17:40:27;22.25;;;18.08;;
26742;SDS011;14341;51.256;22.478;2022-09-27T17:43:33;26.17;;;19.02;;
26742;SDS011;14341;51.256;22.478;2022-09-27T17:46:39;27.48;;;19.30;;
26742;SDS011;14341;51.256;22.478;2022-09-27T17:49:45;53.03;;;28.20;;
26742;SDS011;14341;51.256;22.478;2022-09-27T17:53:08;54.85;;;30.08;;
26742;SDS011;14341;51.256;22.478;2022-09-27T17:56:12;57.65;;;29.90;;
26742;SDS011;14341;51.256;22.478;2022-09-27T17:59:18;96.75;;;37.63;;
26742;SDS011;14341;51.256;22.478;2022-09-27T18:02:23;57.47;;;30.30;;
26742;SDS011;14341;51.256;22.478;2022-09-27T18:05:28;45.05;;;28.38;;
26742;SDS011;14341;51.256;22.478;2022-09-27T18:08:32;55.17;;;31.88;;
26742;SDS011;14341;51.256;22.478;2022-09-27T18:11:37;51.30;;;32.53;;
26742;SDS011;14341;51.256;22.478;2022-09-27T18:14:43;49.75;;;32.10;;
26742;SDS011;14341;51.256;22.478;2022-09-27T18:17:48;50.88;;;30.95;;
26742;SDS011;14341;51.256;22.478;2022-09-27T18:20:59;41.25;;;27.63;;
26742;SDS011;14341;51.256;22.478;2022-09-27T18:24:04;37.97;;;27.95;;
26742;SDS011;14341;51.256;22.478;2022-09-27T18:27:09;39.15;;;26.40;;
26742;SDS011;14341;51.256;22.478;2022-09-27T18:30:22;40.15;;;28.98;;
26742;SDS011;14341;51.256;22.478;2022-09-27T18:33:26;39.70;;;28.92;;
26742;SDS011;14341;51.256;22.478;2022-09-27T18:36:31;38.85;;;28.63;;
26742;SDS011;14341;51.256;22.478;2022-09-27T18:39:35;43.03;;;28.58;;
26742;SDS011;14341;51.256;22.478;2022-09-27T18:42:40;39.78;;;26.75;;
26742;SDS011;14341;51.256;22.478;2022-09-27T18:45:49;37.72;;;27.42;;
26742;SDS011;14341;51.256;22.478;2022-09-27T18:48:53;35.13;;;26.15;;
26742;SDS011;14341;51.256;22.478;2022-09-27T18:51:57;37.42;;;26.27;;
26742;SDS011;14341;51.256;22.478;2022-09-27T18:55:01;34.25;;;25.67;;
26742;SDS011;14341;51.256;22.478;2022-09-27T18:58:05;40.83;;;29.02;;
26742;SDS011;14341;51.256;22.478;2022-09-27T19:01:13;54.97;;;40.65;;
26742;SDS011;14341;51.256;22.478;2022-09-27T19:04:18;33.53;;;25.23;;
26742;SDS011;14341;51.256;22.478;2022-09-27T19:07:25;36.35;;;26.08;;